sensor_id;sensor_type;location;lat;lon;timestamp;pressure;altitude;pressure_sealevel;temperature;humidity
30935;BME280;51033;42.648;23.292;2023-02-15T00:01:51;94992.78;;;0.65;60.81
30935;BME280;51033;42.648;23.292;2023-02-15T00:04:19;95009.34;;;0.89;60.10
30935;BME280;51033;42.648;23.292;2023-02-15T00:06:44;95013.44;;;0.85;60.02
30935;BME280;51033;42.648;23.292;2023-02-15T00:09:11;95029.91;;;1.04;59.85
30935;BME280;51033;42.648;23.292;2023-02-15T00:11:37;95029.59;;;1.12;59.55
30935;BME280;51033;42.648;23.292;2023-02-15T00:16:34;95021.88;;;1.29;58.86
30935;BME280;51033;42.648;23.292;2023-02-15T00:18:59;95030.31;;;1.31;58.79
30935;BME280;51033;42.648;23.292;2023-02-15T00:21:32;95046.13;;;1.24;59.15
30935;BME280;51033;42.648;23.292;2023-02-15T00:23:59;95028.88;;;1.05;59.64
30935;BME280;51033;42.648;23.292;2023-02-15T00:26:25;95015.50;;;0.83;59.74
30935;BME280;51033;42.648;23.292;2023-02-15T00:28:51;95015.50;;;0.83;60.41
30935;BME280;51033;42.648;23.292;2023-02-15T00:31:17;94986.38;;;0.61;60.29
30935;BME280;51033;42.648;23.292;2023-02-15T00:33:43;95022.25;;;0.61;61.02
30935;BME280;51033;42.648;23.292;2023-02-15T00:36:09;95038.00;;;0.72;61.21
30935;BME280;51033;42.648;23.292;2023-02-15T00:38:35;95042.75;;;0.94;61.29
30935;BME280;51033;42.648;23.292;2023-02-15T00:41:03;95041.59;;;0.90;60.59
30935;BME280;51033;42.648;23.292;2023-02-15T00:43:30;95039.09;;;0.95;60.37
30935;BME280;51033;42.648;23.292;2023-02-15T00:45:56;95032.41;;;0.99;60.09
30935;BME280;51033;42.648;23.292;2023-02-15T00:48:22;95019.38;;;1.22;59.17
30935;BME280;51033;42.648;23.292;2023-02-15T00:50:52;95030.53;;;1.29;59.21
30935;BME280;51033;42.648;23.292;2023-02-15T00:53:18;95021.91;;;1.40;58.88
30935;BME280;51033;42.648;23.292;2023-02-15T00:55:44;95014.13;;;1.22;58.57
30935;BME280;51033;42.648;23.292;2023-02-15T00:58:10;95033.03;;;1.24;59.14
30935;BME280;51033;42.648;23.292;2023-02-15T01:00:37;95021.16;;;1.10;59.23
30935;BME280;51033;42.648;23.292;2023-02-15T01:03:03;95038.56;;;0.93;60.45
30935;BME280;51033;42.648;23.292;2023-02-15T01:05:29;95002.84;;;0.80;60.45
30935;BME280;51033;42.648;23.292;2023-02-15T01:07:55;95027.28;;;1.04;60.24
30935;BME280;51033;42.648;23.292;2023-02-15T01:10:20;95037.56;;;0.75;61.08
30935;BME280;51033;42.648;23.292;2023-02-15T01:12:46;95025.06;;;0.77;61.18
30935;BME280;51033;42.648;23.292;2023-02-15T01:15:11;95015.47;;;0.71;61.29
30935;BME280;51033;42.648;23.292;2023-02-15T01:17:37;95035.88;;;0.81;61.38
30935;BME280;51033;42.648;23.292;2023-02-15T01:20:02;95010.44;;;0.70;60.93
30935;BME280;51033;42.648;23.292;2023-02-15T01:22:28;95013.44;;;0.85;60.84
30935;BME280;51033;42.648;23.292;2023-02-15T01:24:53;95022.44;;;0.77;61.10
30935;BME280;51033;42.648;23.292;2023-02-15T01:27:18;95024.72;;;0.74;61.57
30935;BME280;51033;42.648;23.292;2023-02-15T01:29:44;95018.47;;;0.87;61.04
30935;BME280;51033;42.648;23.292;2023-02-15T01:32:10;95020.25;;;0.74;61.74
30935;BME280;51033;42.648;23.292;2023-02-15T01:34:35;95019.75;;;0.66;62.14
30935;BME280;51033;42.648;23.292;2023-02-15T01:37:01;95014.88;;;0.69;62.08
30935;BME280;51033;42.648;23.292;2023-02-15T01:39:26;95009.41;;;0.59;62.12
30935;BME280;51033;42.648;23.292;2023-02-15T01:41:51;95008.88;;;0.69;62.06
30935;BME280;51033;42.648;23.292;2023-02-15T01:47:13;94982.69;;;0.69;61.51
30935;BME280;51033;42.648;23.292;2023-02-15T01:49:43;94997.47;;;0.75;61.49
30935;BME280;51033;42.648;23.292;2023-02-15T01:52:13;94981.75;;;0.63;62.07
30935;BME280;51033;42.648;23.292;2023-02-15T01:54:43;94982.88;;;0.67;61.67
30935;BME280;51033;42.648;23.292;2023-02-15T01:57:17;94995.56;;;0.52;62.69
30935;BME280;51033;42.648;23.292;2023-02-15T01:59:46;94996.16;;;0.54;62.88
30935;BME280;51033;42.648;23.292;2023-02-15T02:02:15;95002.56;;;0.58;62.97
30935;BME280;51033;42.648;23.292;2023-02-15T02:04:47;95005.91;;;0.47;63.49
30935;BME280;51033;42.648;23.292;2023-02-15T02:07:15;94995.97;;;0.67;62.68
30935;BME280;51033;42.648;23.292;2023-02-15T02:09:42;94998.53;;;0.56;63.02
30935;BME280;51033;42.648;23.292;2023-02-15T02:12:08;94987.47;;;0.42;63.28
30935;BME280;51033;42.648;23.292;2023-02-15T02:14:35;94992.41;;;0.32;63.81
30935;BME280;51033;42.648;23.292;2023-02-15T02:22:12;94986.31;;;0.38;63.65
30935;BME280;51033;42.648;23.292;2023-02-15T02:25:12;94982.28;;;0.35;63.53
30935;BME280;51033;42.648;23.292;2023-02-15T02:27:48;95002.34;;;0.42;63.56
30935;BME280;51033;42.648;23.292;2023-02-15T02:30:45;95005.38;;;0.57;62.60
30935;BME280;51033;42.648;23.292;2023-02-15T02:33:18;95028.81;;;0.52;63.56
30935;BME280;51033;42.648;23.292;2023-02-15T02:43:35;95016.44;;;0.89;61.51
30935;BME280;51033;42.648;23.292;2023-02-15T02:48:34;95007.66;;;0.95;61.25
30935;BME280;51033;42.648;23.292;2023-02-15T02:51:00;95015.34;;;1.08;60.71
30935;BME280;51033;42.648;23.292;2023-02-15T02:53:28;94998.19;;;0.82;61.24
30935;BME280;51033;42.648;23.292;2023-02-15T02:56:01;94997.97;;;0.84;61.34
30935;BME280;51033;42.648;23.292;2023-02-15T02:59:06;95013.63;;;1.02;60.96
30935;BME280;51033;42.648;23.292;2023-02-15T03:01:50;94982.19;;;1.02;60.20
30935;BME280;51033;42.648;23.292;2023-02-15T03:04:20;95019.63;;;1.32;59.51
30935;BME280;51033;42.648;23.292;2023-02-15T03:06:59;95025.75;;;1.26;59.70
30935;BME280;51033;42.648;23.292;2023-02-15T03:09:31;95024.16;;;1.25;59.44
30935;BME280;51033;42.648;23.292;2023-02-15T03:12:11;95024.41;;;0.94;60.54
30935;BME280;51033;42.648;23.292;2023-02-15T03:14:39;95023.13;;;0.85;61.44
30935;BME280;51033;42.648;23.292;2023-02-15T03:17:07;95006.09;;;0.64;61.75
30935;BME280;51033;42.648;23.292;2023-02-15T03:19:35;95011.84;;;0.84;61.30
30935;BME280;51033;42.648;23.292;2023-02-15T03:22:15;95000.16;;;0.87;61.12
30935;BME280;51033;42.648;23.292;2023-02-15T03:24:53;95037.22;;;1.13;60.66
30935;BME280;51033;42.648;23.292;2023-02-15T03:27:27;95027.53;;;1.14;60.84
30935;BME280;51033;42.648;23.292;2023-02-15T03:29:58;95030.94;;;1.03;60.83
30935;BME280;51033;42.648;23.292;2023-02-15T03:32:25;95018.25;;;0.88;61.26
30935;BME280;51033;42.648;23.292;2023-02-15T03:34:53;95018.16;;;0.95;61.02
30935;BME280;51033;42.648;23.292;2023-02-15T03:37:32;95032.47;;;1.22;60.47
30935;BME280;51033;42.648;23.292;2023-02-15T03:45:56;95025.03;;;1.19;60.49
30935;BME280;51033;42.648;23.292;2023-02-15T03:48:34;95023.69;;;1.28;60.13
30935;BME280;51033;42.648;23.292;2023-02-15T03:51:06;95027.41;;;1.09;60.76
30935;BME280;51033;42.648;23.292;2023-02-15T03:53:52;95008.59;;;0.89;61.11
30935;BME280;51033;42.648;23.292;2023-02-15T03:56:19;95026.72;;;1.02;60.84
30935;BME280;51033;42.648;23.292;2023-02-15T03:58:44;95025.16;;;1.12;60.69
30935;BME280;51033;42.648;23.292;2023-02-15T04:01:39;95015.91;;;1.10;60.97
30935;BME280;51033;42.648;23.292;2023-02-15T04:04:37;95025.03;;;1.19;60.81
30935;BME280;51033;42.648;23.292;2023-02-15T04:07:06;95009.31;;;1.07;60.74
30935;BME280;51033;42.648;23.292;2023-02-15T04:09:32;95030.28;;;1.19;60.99
30935;BME280;51033;42.648;23.292;2023-02-15T04:12:16;95030.75;;;1.16;61.02
30935;BME280;51033;42.648;23.292;2023-02-15T04:14:42;95027.13;;;0.87;62.12
30935;BME280;51033;42.648;23.292;2023-02-15T04:17:25;95031.84;;;0.97;62.62
30935;BME280;51033;42.648;23.292;2023-02-15T04:19:51;95034.78;;;0.89;62.60
30935;BME280;51033;42.648;23.292;2023-02-15T04:22:35;95031.63;;;1.10;62.21
30935;BME280;51033;42.648;23.292;2023-02-15T04:25:19;95061.72;;;1.19;62.16
30935;BME280;51033;42.648;23.292;2023-02-15T04:27:49;95059.16;;;1.31;61.79
30935;BME280;51033;42.648;23.292;2023-02-15T04:30:16;95062.88;;;1.11;62.35
30935;BME280;51033;42.648;23.292;2023-02-15T04:32:43;95074.28;;;1.17;62.44
30935;BME280;51033;42.648;23.292;2023-02-15T04:35:09;95082.00;;;1.12;62.63
30935;BME280;51033;42.648;23.292;2023-02-15T04:37:35;95060.50;;;0.92;63.11
30935;BME280;51033;42.648;23.292;2023-02-15T04:40:00;95078.72;;;1.16;62.91
30935;BME280;51033;42.648;23.292;2023-02-15T04:42:26;95067.44;;;1.16;62.15
30935;BME280;51033;42.648;23.292;2023-02-15T04:44:53;95073.81;;;1.20;62.54
30935;BME280;51033;42.648;23.292;2023-02-15T04:47:19;95080.13;;;1.31;61.80
30935;BME280;51033;42.648;23.292;2023-02-15T04:49:44;95061.47;;;1.09;61.92
30935;BME280;51033;42.648;23.292;2023-02-15T04:52:10;95075.97;;;1.23;62.05
30935;BME280;51033;42.648;23.292;2023-02-15T04:54:35;95069.97;;;1.34;61.44
30935;BME280;51033;42.648;23.292;2023-02-15T04:57:01;95066.53;;;1.22;61.42
30935;BME280;51033;42.648;23.292;2023-02-15T04:59:26;95080.38;;;1.41;61.33
30935;BME280;51033;42.648;23.292;2023-02-15T05:01:52;95079.91;;;1.32;61.19
30935;BME280;51033;42.648;23.292;2023-02-15T05:04:17;95065.97;;;1.20;61.45
30935;BME280;51033;42.648;23.292;2023-02-15T05:06:43;95072.81;;;1.33;60.89
30935;BME280;51033;42.648;23.292;2023-02-15T05:09:08;95062.53;;;1.08;61.58
30935;BME280;51033;42.648;23.292;2023-02-15T05:11:34;95047.03;;;0.76;62.69
30935;BME280;51033;42.648;23.292;2023-02-15T05:13:59;95098.16;;;1.09;62.60
30935;BME280;51033;42.648;23.292;2023-02-15T05:16:24;95093.56;;;0.93;63.46
30935;BME280;51033;42.648;23.292;2023-02-15T05:18:52;95082.34;;;0.86;62.72
30935;BME280;51033;42.648;23.292;2023-02-15T05:21:18;95057.41;;;0.53;63.68
30935;BME280;51033;42.648;23.292;2023-02-15T05:23:43;95085.44;;;0.64;64.20
30935;BME280;51033;42.648;23.292;2023-02-15T05:26:11;95082.69;;;0.59;64.28
30935;BME280;51033;42.648;23.292;2023-02-15T05:28:55;95112.66;;;0.63;64.87
30935;BME280;51033;42.648;23.292;2023-02-15T05:31:21;95090.59;;;0.71;64.31
30935;BME280;51033;42.648;23.292;2023-02-15T05:33:46;95107.00;;;0.96;63.23
30935;BME280;51033;42.648;23.292;2023-02-15T05:36:12;95082.28;;;0.92;62.94
30935;BME280;51033;42.648;23.292;2023-02-15T05:38:39;95111.13;;;1.04;62.75
30935;BME280;51033;42.648;23.292;2023-02-15T05:41:08;95122.47;;;1.16;62.34
30935;BME280;51033;42.648;23.292;2023-02-15T05:43:34;95130.94;;;1.30;62.13
30935;BME280;51033;42.648;23.292;2023-02-15T05:46:00;95111.91;;;1.34;61.47
30935;BME280;51033;42.648;23.292;2023-02-15T05:48:26;95095.41;;;1.04;61.78
30935;BME280;51033;42.648;23.292;2023-02-15T05:51:00;95119.03;;;1.15;62.42
30935;BME280;51033;42.648;23.292;2023-02-15T05:53:27;95117.03;;;0.99;62.81
30935;BME280;51033;42.648;23.292;2023-02-15T05:55:52;95124.22;;;1.04;63.36
30935;BME280;51033;42.648;23.292;2023-02-15T05:58:19;95104.19;;;1.09;62.39
30935;BME280;51033;42.648;23.292;2023-02-15T06:00:45;95099.50;;;1.00;62.48
30935;BME280;51033;42.648;23.292;2023-02-15T06:03:10;95091.88;;;0.98;62.44
30935;BME280;51033;42.648;23.292;2023-02-15T06:05:36;95095.53;;;1.09;62.09
30935;BME280;51033;42.648;23.292;2023-02-15T06:08:01;95090.06;;;0.80;62.77
30935;BME280;51033;42.648;23.292;2023-02-15T06:10:27;95125.28;;;0.85;63.52
30935;BME280;51033;42.648;23.292;2023-02-15T06:12:52;95113.81;;;0.67;63.91
30935;BME280;51033;42.648;23.292;2023-02-15T06:15:17;95128.78;;;0.78;64.29
30935;BME280;51033;42.648;23.292;2023-02-15T06:17:43;95125.59;;;0.76;64.08
30935;BME280;51033;42.648;23.292;2023-02-15T06:20:09;95081.09;;;0.58;63.86
30935;BME280;51033;42.648;23.292;2023-02-15T06:22:34;95105.09;;;0.73;63.71
30935;BME280;51033;42.648;23.292;2023-02-15T06:25:00;95087.63;;;0.67;63.53
30935;BME280;51033;42.648;23.292;2023-02-15T06:27:25;95115.66;;;0.97;62.68
30935;BME280;51033;42.648;23.292;2023-02-15T06:29:51;95106.13;;;0.84;62.45
30935;BME280;51033;42.648;23.292;2023-02-15T06:32:16;95121.53;;;1.10;62.30
30935;BME280;51033;42.648;23.292;2023-02-15T06:34:42;95117.69;;;1.13;61.86
30935;BME280;51033;42.648;23.292;2023-02-15T06:37:07;95117.63;;;1.31;61.35
30935;BME280;51033;42.648;23.292;2023-02-15T06:39:33;95134.22;;;1.25;61.45
30935;BME280;51033;42.648;23.292;2023-02-15T06:41:59;95098.97;;;1.09;61.27
30935;BME280;51033;42.648;23.292;2023-02-15T06:44:25;95117.03;;;1.29;60.59
30935;BME280;51033;42.648;23.292;2023-02-15T06:46:50;95127.22;;;1.49;60.16
30935;BME280;51033;42.648;23.292;2023-02-15T06:49:16;95113.72;;;1.22;60.47
30935;BME280;51033;42.648;23.292;2023-02-15T06:51:41;95130.94;;;1.30;60.75
30935;BME280;51033;42.648;23.292;2023-02-15T06:54:06;95118.75;;;1.35;59.83
30935;BME280;51033;42.648;23.292;2023-02-15T06:56:32;95089.88;;;1.23;59.79
30935;BME280;51033;42.648;23.292;2023-02-15T06:58:57;95095.22;;;1.47;59.61
30935;BME280;51033;42.648;23.292;2023-02-15T07:01:23;95094.53;;;1.51;59.38
30935;BME280;51033;42.648;23.292;2023-02-15T07:03:48;95120.00;;;1.74;58.60
30935;BME280;51033;42.648;23.292;2023-02-15T07:06:14;95124.25;;;1.87;58.72
30935;BME280;51033;42.648;23.292;2023-02-15T07:08:39;95126.50;;;1.83;58.49
30935;BME280;51033;42.648;23.292;2023-02-15T07:11:06;95125.16;;;1.81;58.05
30935;BME280;51033;42.648;23.292;2023-02-15T07:13:50;95117.03;;;1.71;58.46
30935;BME280;51033;42.648;23.292;2023-02-15T07:16:17;95125.06;;;1.99;57.81
30935;BME280;51033;42.648;23.292;2023-02-15T07:18:43;95117.50;;;1.79;57.73
30935;BME280;51033;42.648;23.292;2023-02-15T07:21:08;95108.63;;;1.92;58.08
30935;BME280;51033;42.648;23.292;2023-02-15T07:23:38;95121.31;;;1.95;57.72
30935;BME280;51033;42.648;23.292;2023-02-15T07:26:04;95130.78;;;2.19;57.63
30935;BME280;51033;42.648;23.292;2023-02-15T07:28:30;95126.66;;;2.23;56.85
30935;BME280;51033;42.648;23.292;2023-02-15T07:30:55;95135.00;;;2.20;56.51
30935;BME280;51033;42.648;23.292;2023-02-15T07:33:22;95121.78;;;2.15;56.46
30935;BME280;51033;42.648;23.292;2023-02-15T07:36:02;95123.94;;;2.18;56.47
30935;BME280;51033;42.648;23.292;2023-02-15T07:38:33;95125.63;;;2.13;56.80
30935;BME280;51033;42.648;23.292;2023-02-15T07:41:00;95116.41;;;2.10;56.76
30935;BME280;51033;42.648;23.292;2023-02-15T07:43:27;95124.16;;;2.05;56.55
30935;BME280;51033;42.648;23.292;2023-02-15T07:46:02;95126.22;;;2.03;57.31
30935;BME280;51033;42.648;23.292;2023-02-15T07:48:28;95111.81;;;2.17;56.27
30935;BME280;51033;42.648;23.292;2023-02-15T07:50:53;95083.56;;;1.96;56.49
30935;BME280;51033;42.648;23.292;2023-02-15T07:53:19;95098.38;;;2.02;57.00
30935;BME280;51033;42.648;23.292;2023-02-15T07:55:44;95101.66;;;2.21;56.65
30935;BME280;51033;42.648;23.292;2023-02-15T07:58:10;95108.41;;;2.28;55.90
30935;BME280;51033;42.648;23.292;2023-02-15T08:00:35;95090.59;;;2.30;56.33
30935;BME280;51033;42.648;23.292;2023-02-15T08:03:25;95104.63;;;2.47;55.89
30935;BME280;51033;42.648;23.292;2023-02-15T08:05:59;95102.00;;;2.47;55.69
30935;BME280;51033;42.648;23.292;2023-02-15T08:08:25;95112.03;;;2.50;55.80
30935;BME280;51033;42.648;23.292;2023-02-15T08:11:19;95110.31;;;2.56;55.71
30935;BME280;51033;42.648;23.292;2023-02-15T08:14:11;95122.25;;;2.75;55.32
30935;BME280;51033;42.648;23.292;2023-02-15T08:16:49;95129.13;;;2.76;55.25
30935;BME280;51033;42.648;23.292;2023-02-15T08:19:21;95121.22;;;2.76;54.74
30935;BME280;51033;42.648;23.292;2023-02-15T08:21:49;95125.94;;;2.63;55.18
30935;BME280;51033;42.648;23.292;2023-02-15T08:24:18;95127.06;;;2.78;54.99
30935;BME280;51033;42.648;23.292;2023-02-15T08:26:44;95105.25;;;2.66;54.89
30935;BME280;51033;42.648;23.292;2023-02-15T08:29:13;95132.06;;;2.80;54.83
30935;BME280;51033;42.648;23.292;2023-02-15T08:31:39;95115.19;;;2.76;54.35
30935;BME280;51033;42.648;23.292;2023-02-15T08:34:07;95135.38;;;2.87;54.17
30935;BME280;51033;42.648;23.292;2023-02-15T08:36:33;95138.97;;;2.69;54.73
30935;BME280;51033;42.648;23.292;2023-02-15T08:39:00;95138.72;;;2.71;54.78
30935;BME280;51033;42.648;23.292;2023-02-15T08:41:28;95126.75;;;2.63;54.30
30935;BME280;51033;42.648;23.292;2023-02-15T08:43:56;95134.84;;;2.73;54.38
30935;BME280;51033;42.648;23.292;2023-02-15T08:46:24;95132.22;;;2.73;54.22
30935;BME280;51033;42.648;23.292;2023-02-15T08:48:50;95141.16;;;2.49;54.81
30935;BME280;51033;42.648;23.292;2023-02-15T08:51:21;95134.88;;;2.38;54.85
30935;BME280;51033;42.648;23.292;2023-02-15T08:53:50;95099.94;;;2.26;54.85
30935;BME280;51033;42.648;23.292;2023-02-15T08:56:21;95138.16;;;2.45;54.75
30935;BME280;51033;42.648;23.292;2023-02-15T08:58:47;95137.16;;;2.23;55.63
30935;BME280;51033;42.648;23.292;2023-02-15T09:01:15;95127.91;;;2.32;55.44
30935;BME280;51033;42.648;23.292;2023-02-15T09:03:44;95136.50;;;2.39;54.94
30935;BME280;51033;42.648;23.292;2023-02-15T09:06:10;95139.91;;;2.28;55.47
30935;BME280;51033;42.648;23.292;2023-02-15T09:08:37;95131.44;;;2.26;55.68
30935;BME280;51033;42.648;23.292;2023-02-15T09:11:19;95141.63;;;2.34;55.52
30935;BME280;51033;42.648;23.292;2023-02-15T09:13:57;95114.00;;;2.32;55.73
30935;BME280;51033;42.648;23.292;2023-02-15T09:16:24;95137.03;;;2.53;55.71
30935;BME280;51033;42.648;23.292;2023-02-15T09:18:51;95119.47;;;2.42;55.88
30935;BME280;51033;42.648;23.292;2023-02-15T09:21:19;95137.59;;;2.67;55.86
30935;BME280;51033;42.648;23.292;2023-02-15T09:23:47;95133.84;;;2.51;56.47
30935;BME280;51033;42.648;23.292;2023-02-15T09:26:18;95130.50;;;2.67;55.83
30935;BME280;51033;42.648;23.292;2023-02-15T09:28:44;95116.25;;;2.51;56.02
30935;BME280;51033;42.648;23.292;2023-02-15T09:31:13;95134.53;;;2.58;56.03
30935;BME280;51033;42.648;23.292;2023-02-15T09:33:40;95138.88;;;2.52;56.24
30935;BME280;51033;42.648;23.292;2023-02-15T09:36:14;95140.66;;;2.75;55.95
30935;BME280;51033;42.648;23.292;2023-02-15T09:38:40;95147.22;;;3.01;54.92
30935;BME280;51033;42.648;23.292;2023-02-15T09:52:49;95099.25;;;3.22;53.27
30935;BME280;51033;42.648;23.292;2023-02-15T09:58:44;95130.69;;;3.46;52.42
30935;BME280;51033;42.648;23.292;2023-02-15T10:01:27;95121.28;;;3.50;51.94
30935;BME280;51033;42.648;23.292;2023-02-15T10:04:24;95110.47;;;3.46;52.61
30935;BME280;51033;42.648;23.292;2023-02-15T10:15:57;95073.72;;;3.51;51.79
30935;BME280;51033;42.648;23.292;2023-02-15T10:21:32;95113.91;;;3.80;51.14
30935;BME280;51033;42.648;23.292;2023-02-15T10:26:48;95097.38;;;3.68;51.27
30935;BME280;51033;42.648;23.292;2023-02-15T10:29:36;95110.34;;;3.86;51.63
30935;BME280;51033;42.648;23.292;2023-02-15T10:32:24;95112.78;;;4.09;50.71
30935;BME280;51033;42.648;23.292;2023-02-15T10:46:20;95089.25;;;3.69;52.17
30935;BME280;51033;42.648;23.292;2023-02-15T11:07:43;95055.28;;;3.34;52.71
30935;BME280;51033;42.648;23.292;2023-02-15T11:10:28;95081.69;;;3.56;52.98
30935;BME280;51033;42.648;23.292;2023-02-15T11:12:56;95047.97;;;3.36;52.74
30935;BME280;51033;42.648;23.292;2023-02-15T11:15:31;95069.81;;;3.54;52.86
30935;BME280;51033;42.648;23.292;2023-02-15T11:21:13;95064.06;;;3.73;52.28
30935;BME280;51033;42.648;23.292;2023-02-15T11:23:44;95063.25;;;3.39;52.80
30935;BME280;51033;42.648;23.292;2023-02-15T11:28:52;94962.16;;;2.85;52.80
30935;BME280;51033;42.648;23.292;2023-02-15T11:31:23;95068.50;;;3.39;52.93
30935;BME280;51033;42.648;23.292;2023-02-15T11:34:04;95066.28;;;3.31;53.21
30935;BME280;51033;42.648;23.292;2023-02-15T11:36:40;95031.34;;;3.19;53.17
30935;BME280;51033;42.648;23.292;2023-02-15T11:39:14;95053.13;;;3.31;53.04
30935;BME280;51033;42.648;23.292;2023-02-15T11:41:46;95058.44;;;3.20;53.21
30935;BME280;51033;42.648;23.292;2023-02-15T11:44:13;95065.56;;;3.36;52.88
30935;BME280;51033;42.648;23.292;2023-02-15T11:46:40;95063.56;;;3.26;53.04
30935;BME280;51033;42.648;23.292;2023-02-15T11:49:22;95054.88;;;3.26;52.82
30935;BME280;51033;42.648;23.292;2023-02-15T11:51:49;95025.31;;;2.90;53.31
30935;BME280;51033;42.648;23.292;2023-02-15T11:54:18;95039.63;;;3.11;53.42
30935;BME280;51033;42.648;23.292;2023-02-15T11:56:44;95041.00;;;3.30;53.54
30935;BME280;51033;42.648;23.292;2023-02-15T11:59:16;95016.63;;;3.18;53.06
30935;BME280;51033;42.648;23.292;2023-02-15T12:01:45;95038.22;;;3.54;52.10
30935;BME280;51033;42.648;23.292;2023-02-15T12:04:21;95025.00;;;3.49;52.24
30935;BME280;51033;42.648;23.292;2023-02-15T12:06:56;95020.38;;;3.56;52.25
30935;BME280;51033;42.648;23.292;2023-02-15T12:09:46;95015.84;;;3.51;51.92
30935;BME280;51033;42.648;23.292;2023-02-15T12:14:50;95011.94;;;3.54;52.11
30935;BME280;51033;42.648;23.292;2023-02-15T12:17:16;95016.47;;;3.58;52.35
30935;BME280;51033;42.648;23.292;2023-02-15T12:19:42;95011.13;;;3.70;51.97
30935;BME280;51033;42.648;23.292;2023-02-15T12:22:25;95002.81;;;3.95;51.24
30935;BME280;51033;42.648;23.292;2023-02-15T12:24:56;94992.03;;;3.96;51.11
30935;BME280;51033;42.648;23.292;2023-02-15T12:27:28;94974.66;;;3.78;50.76
30935;BME280;51033;42.648;23.292;2023-02-15T12:30:19;95004.56;;;3.89;51.27
30935;BME280;51033;42.648;23.292;2023-02-15T12:32:53;95005.28;;;4.01;51.54
30935;BME280;51033;42.648;23.292;2023-02-15T12:35:29;95004.84;;;4.09;50.96
30935;BME280;51033;42.648;23.292;2023-02-15T12:38:20;95006.09;;;4.23;50.87
30935;BME280;51033;42.648;23.292;2023-02-15T12:41:00;95007.03;;;4.34;50.74
30935;BME280;51033;42.648;23.292;2023-02-15T12:43:31;94957.75;;;3.91;50.54
30935;BME280;51033;42.648;23.292;2023-02-15T12:46:23;94985.00;;;4.23;50.85
30935;BME280;51033;42.648;23.292;2023-02-15T12:51:42;94940.81;;;4.25;50.32
30935;BME280;51033;42.648;23.292;2023-02-15T12:54:34;94975.56;;;4.27;51.15
30935;BME280;51033;42.648;23.292;2023-02-15T12:57:15;94941.16;;;4.12;50.71
30935;BME280;51033;42.648;23.292;2023-02-15T13:00:05;94963.81;;;4.13;50.85
30935;BME280;51033;42.648;23.292;2023-02-15T13:02:54;94967.03;;;4.15;51.00
30935;BME280;51033;42.648;23.292;2023-02-15T13:05:43;94973.34;;;4.36;50.72
30935;BME280;51033;42.648;23.292;2023-02-15T13:08:15;94948.53;;;4.54;49.63
30935;BME280;51033;42.648;23.292;2023-02-15T13:13:26;94980.72;;;4.61;50.21
30935;BME280;51033;42.648;23.292;2023-02-15T13:15:54;94951.94;;;4.81;49.67
30935;BME280;51033;42.648;23.292;2023-02-15T13:20:54;94966.31;;;4.95;49.26
30935;BME280;51033;42.648;23.292;2023-02-15T13:23:30;94947.63;;;4.97;48.79
30935;BME280;51033;42.648;23.292;2023-02-15T13:25:58;94967.50;;;5.09;48.94
30935;BME280;51033;42.648;23.292;2023-02-15T13:28:34;94961.75;;;5.12;48.46
30935;BME280;51033;42.648;23.292;2023-02-15T13:31:02;94968.06;;;5.11;48.67
30935;BME280;51033;42.648;23.292;2023-02-15T13:33:32;94946.91;;;5.06;48.36
30935;BME280;51033;42.648;23.292;2023-02-15T13:36:14;94971.88;;;5.26;48.27
30935;BME280;51033;42.648;23.292;2023-02-15T13:47:43;94969.09;;;5.79;47.41
30935;BME280;51033;42.648;23.292;2023-02-15T13:55:51;94981.19;;;5.70;47.27
30935;BME280;51033;42.648;23.292;2023-02-15T14:01:26;94964.19;;;5.56;47.38
30935;BME280;51033;42.648;23.292;2023-02-15T14:04:17;94961.84;;;5.23;48.25
30935;BME280;51033;42.648;23.292;2023-02-15T14:07:26;95001.00;;;5.09;48.68
30935;BME280;51033;42.648;23.292;2023-02-15T14:10:04;94990.81;;;5.18;49.08
30935;BME280;51033;42.648;23.292;2023-02-15T14:15:28;95004.03;;;5.23;48.89
30935;BME280;51033;42.648;23.292;2023-02-15T14:18:35;95014.06;;;5.26;48.50
30935;BME280;51033;42.648;23.292;2023-02-15T14:29:16;95011.84;;;5.12;48.97
30935;BME280;51033;42.648;23.292;2023-02-15T14:31:47;95008.03;;;4.98;49.20
30935;BME280;51033;42.648;23.292;2023-02-15T14:34:23;95001.97;;;4.76;49.63
30935;BME280;51033;42.648;23.292;2023-02-15T14:36:51;95010.34;;;4.46;50.25
30935;BME280;51033;42.648;23.292;2023-02-15T14:39:56;95007.53;;;4.53;50.33
30935;BME280;51033;42.648;23.292;2023-02-15T15:01:31;95003.94;;;3.82;51.90
30935;BME280;51033;42.648;23.292;2023-02-15T15:04:05;94996.00;;;3.77;52.19
30935;BME280;51033;42.648;23.292;2023-02-15T15:06:34;94976.50;;;3.78;51.77
30935;BME280;51033;42.648;23.292;2023-02-15T15:09:24;95009.38;;;4.14;51.70
30935;BME280;51033;42.648;23.292;2023-02-15T15:11:52;95006.59;;;4.20;51.15
30935;BME280;51033;42.648;23.292;2023-02-15T15:14:37;94997.94;;;4.25;50.63
30935;BME280;51033;42.648;23.292;2023-02-15T15:17:05;94977.22;;;3.90;51.12
30935;BME280;51033;42.648;23.292;2023-02-15T15:22:21;95016.03;;;4.00;51.58
30935;BME280;51033;42.648;23.292;2023-02-15T15:27:48;95015.59;;;3.86;51.81
30935;BME280;51033;42.648;23.292;2023-02-15T15:43:31;95030.69;;;4.12;51.31
30935;BME280;51033;42.648;23.292;2023-02-15T15:46:06;95031.91;;;4.05;51.42
30935;BME280;51033;42.648;23.292;2023-02-15T15:48:38;95015.84;;;4.06;51.23
30935;BME280;51033;42.648;23.292;2023-02-15T15:51:33;94988.63;;;3.79;50.88
30935;BME280;51033;42.648;23.292;2023-02-15T15:54:01;95024.47;;;4.02;51.36
30935;BME280;51033;42.648;23.292;2023-02-15T15:56:30;95006.09;;;3.85;51.47
30935;BME280;51033;42.648;23.292;2023-02-15T15:59:19;95033.75;;;4.04;51.20
30935;BME280;51033;42.648;23.292;2023-02-15T16:01:47;95026.94;;;4.08;51.06
30935;BME280;51033;42.648;23.292;2023-02-15T16:04:24;94987.19;;;3.88;50.98
30935;BME280;51033;42.648;23.292;2023-02-15T16:06:50;95022.53;;;4.14;51.04
30935;BME280;51033;42.648;23.292;2023-02-15T16:09:22;95015.84;;;4.06;50.95
30935;BME280;51033;42.648;23.292;2023-02-15T16:11:50;95017.03;;;4.15;50.49